sensor_id;sensor_type;location;lat;lon;timestamp;P1;durP1;ratioP1;P2;durP2;ratioP2
64252;SDS011;50592;52.958;-7.470;2023-11-19T01:06:06;14.65;;;2.33;;
64252;SDS011;50592;52.958;-7.470;2023-11-19T01:08:33;25.88;;;4.10;;
64252;SDS011;50592;52.958;-7.470;2023-11-19T01:11:19;23.45;;;4.22;;
64252;SDS011;50592;52.958;-7.470;2023-11-19T01:13:49;17.98;;;3.38;;
64252;SDS011;50592;52.958;-7.470;2023-11-19T01:16:18;22.98;;;3.95;;
64252;SDS011;50592;52.958;-7.470;2023-11-19T01:18:44;22.80;;;4.20;;
64252;SDS011;50592;52.958;-7.470;2023-11-19T01:21:12;24.58;;;3.35;;
64252;SDS011;50592;52.958;-7.470;2023-11-19T01:23:40;16.80;;;2.78;;
64252;SDS011;50592;52.958;-7.470;2023-11-19T01:26:12;17.30;;;2.90;;
64252;SDS011;50592;52.958;-7.470;2023-11-19T01:28:38;18.60;;;3.63;;
64252;SDS011;50592;52.958;-7.470;2023-11-19T01:31:05;16.55;;;3.20;;
64252;SDS011;50592;52.958;-7.470;2023-11-19T01:33:38;19.00;;;3.28;;
64252;SDS011;50592;52.958;-7.470;2023-11-19T01:36:05;16.33;;;2.95;;
64252;SDS011;50592;52.958;-7.470;2023-11-19T01:38:33;12.55;;;2.53;;
64252;SDS011;50592;52.958;-7.470;2023-11-19T01:41:00;19.80;;;2.80;;
64252;SDS011;50592;52.958;-7.470;2023-11-19T01:43:32;17.98;;;2.85;;
64252;SDS011;50592;52.958;-7.470;2023-11-19T01:46:00;15.85;;;3.42;;
64252;SDS011;50592;52.958;-7.470;2023-11-19T01:48:26;18.30;;;2.92;;
64252;SDS011;50592;52.958;-7.470;2023-11-19T01:50:53;18.83;;;2.53;;
64252;SDS011;50592;52.958;-7.470;2023-11-19T01:53:19;15.30;;;2.33;;
64252;SDS011;50592;52.958;-7.470;2023-11-19T01:55:46;19.58;;;3.58;;
64252;SDS011;50592;52.958;-7.470;2023-11-19T01:58:12;16.73;;;2.60;;
64252;SDS011;50592;52.958;-7.470;2023-11-19T02:00:38;18.13;;;2.50;;
64252;SDS011;50592;52.958;-7.470;2023-11-19T02:03:05;18.38;;;2.67;;
64252;SDS011;50592;52.958;-7.470;2023-11-19T02:05:34;22.85;;;3.10;;
64252;SDS011;50592;52.958;-7.470;2023-11-19T02:08:01;20.85;;;3.40;;
64252;SDS011;50592;52.958;-7.470;2023-11-19T02:10:27;17.05;;;2.33;;
64252;SDS011;50592;52.958;-7.470;2023-11-19T02:12:55;18.10;;;2.75;;
64252;SDS011;50592;52.958;-7.470;2023-11-19T02:15:24;19.70;;;2.25;;
64252;SDS011;50592;52.958;-7.470;2023-11-19T02:17:56;12.95;;;2.40;;
64252;SDS011;50592;52.958;-7.470;2023-11-19T02:20:44;15.30;;;2.20;;
64252;SDS011;50592;52.958;-7.470;2023-11-19T02:23:10;22.67;;;2.88;;
64252;SDS011;50592;52.958;-7.470;2023-11-19T02:25:36;14.57;;;2.83;;
64252;SDS011;50592;52.958;-7.470;2023-11-19T02:28:06;12.52;;;2.03;;
64252;SDS011;50592;52.958;-7.470;2023-11-19T02:30:32;16.02;;;2.35;;
64252;SDS011;50592;52.958;-7.470;2023-11-19T02:32:59;13.55;;;2.25;;
64252;SDS011;50592;52.958;-7.470;2023-11-19T02:35:51;14.73;;;2.53;;
64252;SDS011;50592;52.958;-7.470;2023-11-19T02:38:19;10.93;;;2.20;;
64252;SDS011;50592;52.958;-7.470;2023-11-19T02:40:47;18.33;;;2.95;;
64252;SDS011;50592;52.958;-7.470;2023-11-19T02:43:14;17.58;;;2.88;;
64252;SDS011;50592;52.958;-7.470;2023-11-19T02:45:40;13.85;;;2.33;;
64252;SDS011;50592;52.958;-7.470;2023-11-19T02:48:21;14.73;;;2.40;;
64252;SDS011;50592;52.958;-7.470;2023-11-19T02:50:47;17.15;;;2.25;;
64252;SDS011;50592;52.958;-7.470;2023-11-19T02:53:13;10.88;;;2.20;;
64252;SDS011;50592;52.958;-7.470;2023-11-19T02:55:39;15.10;;;1.65;;
64252;SDS011;50592;52.958;-7.470;2023-11-19T02:58:06;19.40;;;2.38;;
64252;SDS011;50592;52.958;-7.470;2023-11-19T03:00:50;14.77;;;1.77;;
64252;SDS011;50592;52.958;-7.470;2023-11-19T03:03:37;12.27;;;2.10;;
64252;SDS011;50592;52.958;-7.470;2023-11-19T03:06:04;13.73;;;3.08;;
64252;SDS011;50592;52.958;-7.470;2023-11-19T03:08:30;10.32;;;1.63;;
64252;SDS011;50592;52.958;-7.470;2023-11-19T03:10:56;16.92;;;3.30;;
64252;SDS011;50592;52.958;-7.470;2023-11-19T03:13:22;11.20;;;2.33;;
64252;SDS011;50592;52.958;-7.470;2023-11-19T03:15:48;12.40;;;2.05;;
64252;SDS011;50592;52.958;-7.470;2023-11-19T03:18:14;11.40;;;2.13;;
64252;SDS011;50592;52.958;-7.470;2023-11-19T03:20:40;14.43;;;2.78;;
64252;SDS011;50592;52.958;-7.470;2023-11-19T03:23:06;13.98;;;2.17;;
64252;SDS011;50592;52.958;-7.470;2023-11-19T03:25:31;12.57;;;2.30;;
64252;SDS011;50592;52.958;-7.470;2023-11-19T03:28:01;12.80;;;2.50;;
64252;SDS011;50592;52.958;-7.470;2023-11-19T03:30:29;16.98;;;2.40;;
64252;SDS011;50592;52.958;-7.470;2023-11-19T03:32:56;17.33;;;3.05;;
64252;SDS011;50592;52.958;-7.470;2023-11-19T03:35:23;12.55;;;2.63;;
64252;SDS011;50592;52.958;-7.470;2023-11-19T03:37:49;18.50;;;2.53;;
64252;SDS011;50592;52.958;-7.470;2023-11-19T03:40:16;11.65;;;2.08;;
64252;SDS011;50592;52.958;-7.470;2023-11-19T03:42:44;13.60;;;2.15;;
64252;SDS011;50592;52.958;-7.470;2023-11-19T03:45:10;15.50;;;2.33;;
64252;SDS011;50592;52.958;-7.470;2023-11-19T03:47:37;20.20;;;2.63;;
64252;SDS011;50592;52.958;-7.470;2023-11-19T03:50:04;18.52;;;2.72;;
64252;SDS011;50592;52.958;-7.470;2023-11-19T03:52:30;14.63;;;1.85;;
64252;SDS011;50592;52.958;-7.470;2023-11-19T03:54:56;14.18;;;2.42;;
64252;SDS011;50592;52.958;-7.470;2023-11-19T03:57:22;16.05;;;1.83;;
64252;SDS011;50592;52.958;-7.470;2023-11-19T03:59:48;10.38;;;2.22;;
64252;SDS011;50592;52.958;-7.470;2023-11-19T04:02:14;21.23;;;2.55;;
64252;SDS011;50592;52.958;-7.470;2023-11-19T04:04:41;13.07;;;2.03;;
64252;SDS011;50592;52.958;-7.470;2023-11-19T04:07:07;13.30;;;2.08;;
64252;SDS011;50592;52.958;-7.470;2023-11-19T04:09:33;16.25;;;2.10;;
64252;SDS011;50592;52.958;-7.470;2023-11-19T04:12:00;12.40;;;2.00;;
64252;SDS011;50592;52.958;-7.470;2023-11-19T04:14:26;15.77;;;1.88;;
64252;SDS011;50592;52.958;-7.470;2023-11-19T04:17:06;14.07;;;1.95;;
64252;SDS011;50592;52.958;-7.470;2023-11-19T04:19:32;14.55;;;3.03;;
64252;SDS011;50592;52.958;-7.470;2023-11-19T04:21:58;10.80;;;1.95;;
64252;SDS011;50592;52.958;-7.470;2023-11-19T04:24:24;14.80;;;1.83;;
64252;SDS011;50592;52.958;-7.470;2023-11-19T04:26:49;15.65;;;1.85;;
64252;SDS011;50592;52.958;-7.470;2023-11-19T04:29:19;15.20;;;1.50;;
64252;SDS011;50592;52.958;-7.470;2023-11-19T04:31:45;10.32;;;2.17;;
64252;SDS011;50592;52.958;-7.470;2023-11-19T04:34:11;12.70;;;2.03;;
64252;SDS011;50592;52.958;-7.470;2023-11-19T04:36:49;11.30;;;1.63;;
64252;SDS011;50592;52.958;-7.470;2023-11-19T04:39:15;11.55;;;1.60;;
64252;SDS011;50592;52.958;-7.470;2023-11-19T04:41:50;11.50;;;1.85;;
64252;SDS011;50592;52.958;-7.470;2023-11-19T04:44:19;17.27;;;2.15;;
64252;SDS011;50592;52.958;-7.470;2023-11-19T04:46:46;12.18;;;1.67;;
64252;SDS011;50592;52.958;-7.470;2023-11-19T04:49:12;10.85;;;1.55;;
64252;SDS011;50592;52.958;-7.470;2023-11-19T04:51:40;11.30;;;1.58;;
64252;SDS011;50592;52.958;-7.470;2023-11-19T04:54:07;8.45;;;1.33;;
64252;SDS011;50592;52.958;-7.470;2023-11-19T04:56:34;7.88;;;1.50;;
64252;SDS011;50592;52.958;-7.470;2023-11-19T04:59:02;12.05;;;1.30;;
64252;SDS011;50592;52.958;-7.470;2023-11-19T05:01:29;8.32;;;1.33;;
64252;SDS011;50592;52.958;-7.470;2023-11-19T05:03:56;10.15;;;1.48;;
64252;SDS011;50592;52.958;-7.470;2023-11-19T05:06:28;6.68;;;1.60;;
64252;SDS011;50592;52.958;-7.470;2023-11-19T05:08:57;5.38;;;1.00;;
64252;SDS011;50592;52.958;-7.470;2023-11-19T05:11:29;7.82;;;1.00;;
64252;SDS011;50592;52.958;-7.470;2023-11-19T05:13:54;12.07;;;1.80;;
64252;SDS011;50592;52.958;-7.470;2023-11-19T05:16:20;12.95;;;1.90;;
64252;SDS011;50592;52.958;-7.470;2023-11-19T05:18:46;8.50;;;1.27;;
64252;SDS011;50592;52.958;-7.470;2023-11-19T05:21:14;5.97;;;1.10;;
64252;SDS011;50592;52.958;-7.470;2023-11-19T05:23:40;10.68;;;2.35;;
64252;SDS011;50592;52.958;-7.470;2023-11-19T05:26:16;8.88;;;1.58;;
64252;SDS011;50592;52.958;-7.470;2023-11-19T05:28:43;10.93;;;1.25;;
64252;SDS011;50592;52.958;-7.470;2023-11-19T05:31:09;9.18;;;1.27;;
64252;SDS011;50592;52.958;-7.470;2023-11-19T05:33:35;7.85;;;1.25;;
64252;SDS011;50592;52.958;-7.470;2023-11-19T05:36:04;6.78;;;0.98;;
64252;SDS011;50592;52.958;-7.470;2023-11-19T05:38:30;6.93;;;1.27;;
64252;SDS011;50592;52.958;-7.470;2023-11-19T05:40:57;7.70;;;1.10;;
64252;SDS011;50592;52.958;-7.470;2023-11-19T05:43:23;7.35;;;1.08;;
64252;SDS011;50592;52.958;-7.470;2023-11-19T05:45:49;8.52;;;1.30;;
64252;SDS011;50592;52.958;-7.470;2023-11-19T05:48:19;9.88;;;1.17;;
64252;SDS011;50592;52.958;-7.470;2023-11-19T05:50:45;8.88;;;1.05;;
64252;SDS011;50592;52.958;-7.470;2023-11-19T05:57:55;4.60;;;0.73;;
64252;SDS011;50592;52.958;-7.470;2023-11-19T06:23:28;4.45;;;0.80;;
64252;SDS011;50592;52.958;-7.470;2023-11-19T06:27:18;4.93;;;0.73;;
64252;SDS011;50592;52.958;-7.470;2023-11-19T06:31:22;7.65;;;1.10;;
64252;SDS011;50592;52.958;-7.470;2023-11-19T06:55:08;4.55;;;2.63;;
64252;SDS011;50592;52.958;-7.470;2023-11-19T07:11:14;0.73;;;0.73;;
64252;SDS011;50592;52.958;-7.470;2023-11-19T07:20:21;46.85;;;28.98;;
64252;SDS011;50592;52.958;-7.470;2023-11-19T07:28:34;7.57;;;6.05;;
64252;SDS011;50592;52.958;-7.470;2023-11-19T07:36:41;13.35;;;9.77;;
64252;SDS011;50592;52.958;-7.470;2023-11-19T07:49:01;5.15;;;4.30;;
64252;SDS011;50592;52.958;-7.470;2023-11-19T08:01:26;2.03;;;1.33;;
64252;SDS011;50592;52.958;-7.470;2023-11-19T08:26:35;2.78;;;0.70;;
64252;SDS011;50592;52.958;-7.470;2023-11-19T08:29:59;8.27;;;0.85;;
64252;SDS011;50592;52.958;-7.470;2023-11-19T08:41:35;4.63;;;0.57;;
64252;SDS011;50592;52.958;-7.470;2023-11-19T08:44:17;7.82;;;0.73;;
64252;SDS011;50592;52.958;-7.470;2023-11-19T08:47:33;5.35;;;1.60;;
64252;SDS011;50592;52.958;-7.470;2023-11-19T08:55:04;8.75;;;0.95;;
64252;SDS011;50592;52.958;-7.470;2023-11-19T08:58:39;4.45;;;0.50;;
64252;SDS011;50592;52.958;-7.470;2023-11-19T09:02:24;7.28;;;1.40;;
64252;SDS011;50592;52.958;-7.470;2023-11-19T09:06:09;5.38;;;0.68;;
64252;SDS011;50592;52.958;-7.470;2023-11-19T09:16:38;4.50;;;0.55;;
64252;SDS011;50592;52.958;-7.470;2023-11-19T09:19:40;5.10;;;1.30;;
64252;SDS011;50592;52.958;-7.470;2023-11-19T09:27:06;3.67;;;1.27;;
64252;SDS011;50592;52.958;-7.470;2023-11-19T09:33:05;4.90;;;0.50;;
64252;SDS011;50592;52.958;-7.470;2023-11-19T09:36:08;1.73;;;0.30;;
64252;SDS011;50592;52.958;-7.470;2023-11-19T09:39:03;1.52;;;0.30;;
64252;SDS011;50592;52.958;-7.470;2023-11-19T09:41:36;2.35;;;0.52;;
64252;SDS011;50592;52.958;-7.470;2023-11-19T09:44:23;0.98;;;0.22;;
64252;SDS011;50592;52.958;-7.470;2023-11-19T09:46:50;2.15;;;0.32;;
64252;SDS011;50592;52.958;-7.470;2023-11-19T09:49:19;0.63;;;0.20;;
64252;SDS011;50592;52.958;-7.470;2023-11-19T09:51:52;2.88;;;0.40;;
64252;SDS011;50592;52.958;-7.470;2023-11-19T09:54:22;1.85;;;0.20;;
64252;SDS011;50592;52.958;-7.470;2023-11-19T09:56:48;1.13;;;0.40;;
64252;SDS011;50592;52.958;-7.470;2023-11-19T09:59:20;3.85;;;0.30;;
64252;SDS011;50592;52.958;-7.470;2023-11-19T10:06:15;0.08;;;0.00;;
64252;SDS011;50592;52.958;-7.470;2023-11-19T10:30:21;3.55;;;0.50;;
64252;SDS011;50592;52.958;-7.470;2023-11-19T10:35:50;4.32;;;0.45;;
64252;SDS011;50592;52.958;-7.470;2023-11-19T10:38:20;4.03;;;0.50;;
64252;SDS011;50592;52.958;-7.470;2023-11-19T10:40:48;2.75;;;0.45;;
64252;SDS011;50592;52.958;-7.470;2023-11-19T10:43:16;5.57;;;0.90;;
64252;SDS011;50592;52.958;-7.470;2023-11-19T10:45:42;5.70;;;0.70;;
64252;SDS011;50592;52.958;-7.470;2023-11-19T10:48:08;2.88;;;0.40;;
64252;SDS011;50592;52.958;-7.470;2023-11-19T10:50:35;3.88;;;0.60;;
64252;SDS011;50592;52.958;-7.470;2023-11-19T10:53:03;4.80;;;0.60;;
64252;SDS011;50592;52.958;-7.470;2023-11-19T10:55:31;9.80;;;1.00;;
64252;SDS011;50592;52.958;-7.470;2023-11-19T10:58:03;9.98;;;1.30;;
64252;SDS011;50592;52.958;-7.470;2023-11-19T11:03:15;7.13;;;1.13;;
64252;SDS011;50592;52.958;-7.470;2023-11-19T11:05:47;7.88;;;1.00;;
64252;SDS011;50592;52.958;-7.470;2023-11-19T11:08:14;7.05;;;0.70;;
64252;SDS011;50592;52.958;-7.470;2023-11-19T11:10:44;9.63;;;1.23;;
64252;SDS011;50592;52.958;-7.470;2023-11-19T11:13:13;5.70;;;0.95;;
64252;SDS011;50592;52.958;-7.470;2023-11-19T11:15:39;4.85;;;0.63;;
64252;SDS011;50592;52.958;-7.470;2023-11-19T11:18:08;4.55;;;0.80;;
64252;SDS011;50592;52.958;-7.470;2023-11-19T11:20:35;6.72;;;1.05;;
64252;SDS011;50592;52.958;-7.470;2023-11-19T11:23:17;11.73;;;1.23;;
64252;SDS011;50592;52.958;-7.470;2023-11-19T11:28:46;13.30;;;1.70;;
64252;SDS011;50592;52.958;-7.470;2023-11-19T11:31:26;9.02;;;1.13;;
64252;SDS011;50592;52.958;-7.470;2023-11-19T11:34:24;12.75;;;1.88;;
64252;SDS011;50592;52.958;-7.470;2023-11-19T11:37:18;15.57;;;2.13;;
64252;SDS011;50592;52.958;-7.470;2023-11-19T11:39:49;10.98;;;1.73;;
64252;SDS011;50592;52.958;-7.470;2023-11-19T11:50:16;13.73;;;2.45;;
64252;SDS011;50592;52.958;-7.470;2023-11-19T11:55:25;13.23;;;2.28;;
64252;SDS011;50592;52.958;-7.470;2023-11-19T11:58:32;14.85;;;2.50;;
64252;SDS011;50592;52.958;-7.470;2023-11-19T12:01:02;18.67;;;2.35;;
64252;SDS011;50592;52.958;-7.470;2023-11-19T12:03:31;20.13;;;3.42;;
64252;SDS011;50592;52.958;-7.470;2023-11-19T12:05:58;18.00;;;2.15;;
64252;SDS011;50592;52.958;-7.470;2023-11-19T12:08:27;14.88;;;1.63;;
64252;SDS011;50592;52.958;-7.470;2023-11-19T12:13:47;10.50;;;1.85;;
64252;SDS011;50592;52.958;-7.470;2023-11-19T12:16:20;13.90;;;2.33;;
64252;SDS011;50592;52.958;-7.470;2023-11-19T12:18:47;15.57;;;1.52;;
64252;SDS011;50592;52.958;-7.470;2023-11-19T12:21:27;11.93;;;2.30;;
64252;SDS011;50592;52.958;-7.470;2023-11-19T12:23:55;11.93;;;2.40;;
64252;SDS011;50592;52.958;-7.470;2023-11-19T12:26:31;11.80;;;1.98;;
64252;SDS011;50592;52.958;-7.470;2023-11-19T12:29:02;14.75;;;2.08;;
64252;SDS011;50592;52.958;-7.470;2023-11-19T12:31:32;16.17;;;2.80;;
64252;SDS011;50592;52.958;-7.470;2023-11-19T12:38:30;13.50;;;1.98;;
64252;SDS011;50592;52.958;-7.470;2023-11-19T12:41:07;14.70;;;2.50;;
64252;SDS011;50592;52.958;-7.470;2023-11-19T12:43:37;12.75;;;2.03;;
64252;SDS011;50592;52.958;-7.470;2023-11-19T12:46:25;15.63;;;2.40;;
64252;SDS011;50592;52.958;-7.470;2023-11-19T12:49:07;16.05;;;2.55;;
64252;SDS011;50592;52.958;-7.470;2023-11-19T12:52:14;15.45;;;2.38;;
64252;SDS011;50592;52.958;-7.470;2023-11-19T12:54:50;11.15;;;1.85;;
64252;SDS011;50592;52.958;-7.470;2023-11-19T12:57:17;15.85;;;1.50;;
64252;SDS011;50592;52.958;-7.470;2023-11-19T13:00:01;14.32;;;1.75;;
64252;SDS011;50592;52.958;-7.470;2023-11-19T13:06:07;21.30;;;2.60;;
64252;SDS011;50592;52.958;-7.470;2023-11-19T13:08:49;17.83;;;2.42;;
64252;SDS011;50592;52.958;-7.470;2023-11-19T13:11:35;15.73;;;3.03;;
64252;SDS011;50592;52.958;-7.470;2023-11-19T13:14:04;14.20;;;1.92;;
64252;SDS011;50592;52.958;-7.470;2023-11-19T13:16:36;22.98;;;2.65;;
64252;SDS011;50592;52.958;-7.470;2023-11-19T13:19:05;16.27;;;1.88;;
64252;SDS011;50592;52.958;-7.470;2023-11-19T13:21:40;8.40;;;2.20;;
64252;SDS011;50592;52.958;-7.470;2023-11-19T13:24:40;9.35;;;1.40;;
64252;SDS011;50592;52.958;-7.470;2023-11-19T13:27:35;15.10;;;2.08;;
64252;SDS011;50592;52.958;-7.470;2023-11-19T13:30:59;12.68;;;1.27;;
64252;SDS011;50592;52.958;-7.470;2023-11-19T13:33:56;11.00;;;2.10;;
64252;SDS011;50592;52.958;-7.470;2023-11-19T13:36:43;14.60;;;1.98;;
64252;SDS011;50592;52.958;-7.470;2023-11-19T13:41:59;18.48;;;2.38;;
64252;SDS011;50592;52.958;-7.470;2023-11-19T13:44:27;11.90;;;2.38;;
64252;SDS011;50592;52.958;-7.470;2023-11-19T13:47:17;14.93;;;2.40;;
64252;SDS011;50592;52.958;-7.470;2023-11-19T13:50:03;16.20;;;2.22;;
64252;SDS011;50592;52.958;-7.470;2023-11-19T13:52:55;12.13;;;2.63;;
64252;SDS011;50592;52.958;-7.470;2023-11-19T13:55:55;15.55;;;2.30;;
64252;SDS011;50592;52.958;-7.470;2023-11-19T13:58:28;21.80;;;3.80;;
64252;SDS011;50592;52.958;-7.470;2023-11-19T14:00:53;19.60;;;3.03;;
64252;SDS011;50592;52.958;-7.470;2023-11-19T14:03:19;15.35;;;2.72;;
64252;SDS011;50592;52.958;-7.470;2023-11-19T14:08:57;25.05;;;3.17;;
64252;SDS011;50592;52.958;-7.470;2023-11-19T14:12:10;13.38;;;2.58;;
64252;SDS011;50592;52.958;-7.470;2023-11-19T14:18:20;12.65;;;2.38;;
64252;SDS011;50592;52.958;-7.470;2023-11-19T14:20:46;11.80;;;1.90;;
64252;SDS011;50592;52.958;-7.470;2023-11-19T14:23:11;16.25;;;2.20;;
64252;SDS011;50592;52.958;-7.470;2023-11-19T14:25:38;12.02;;;1.90;;
64252;SDS011;50592;52.958;-7.470;2023-11-19T14:28:04;5.25;;;1.27;;
64252;SDS011;50592;52.958;-7.470;2023-11-19T14:34:10;8.85;;;1.70;;
64252;SDS011;50592;52.958;-7.470;2023-11-19T14:36:45;9.30;;;1.42;;
64252;SDS011;50592;52.958;-7.470;2023-11-19T14:44:01;21.13;;;3.67;;
64252;SDS011;50592;52.958;-7.470;2023-11-19T14:47:27;18.40;;;2.83;;
64252;SDS011;50592;52.958;-7.470;2023-11-19T14:50:39;24.60;;;3.92;;
64252;SDS011;50592;52.958;-7.470;2023-11-19T15:09:36;23.50;;;3.92;;
64252;SDS011;50592;52.958;-7.470;2023-11-19T15:12:02;29.13;;;4.70;;
64252;SDS011;50592;52.958;-7.470;2023-11-19T15:14:28;22.08;;;4.15;;
64252;SDS011;50592;52.958;-7.470;2023-11-19T15:19:51;19.48;;;3.05;;
64252;SDS011;50592;52.958;-7.470;2023-11-19T15:22:18;23.35;;;3.83;;
64252;SDS011;50592;52.958;-7.470;2023-11-19T15:24:49;20.48;;;3.30;;
64252;SDS011;50592;52.958;-7.470;2023-11-19T15:27:15;21.77;;;3.33;;
64252;SDS011;50592;52.958;-7.470;2023-11-19T15:29:50;21.40;;;3.50;;
64252;SDS011;50592;52.958;-7.470;2023-11-19T15:32:37;24.58;;;3.72;;
64252;SDS011;50592;52.958;-7.470;2023-11-19T15:35:12;14.40;;;3.65;;
64252;SDS011;50592;52.958;-7.470;2023-11-19T15:37:51;14.20;;;3.08;;
64252;SDS011;50592;52.958;-7.470;2023-11-19T15:40:47;22.73;;;3.83;;
64252;SDS011;50592;52.958;-7.470;2023-11-19T15:52:23;29.92;;;4.43;;
64252;SDS011;50592;52.958;-7.470;2023-11-19T15:58:08;25.08;;;4.13;;
64252;SDS011;50592;52.958;-7.470;2023-11-19T16:00:39;21.17;;;4.38;;
64252;SDS011;50592;52.958;-7.470;2023-11-19T16:03:16;19.20;;;2.97;;
64252;SDS011;50592;52.958;-7.470;2023-11-19T16:06:06;26.33;;;3.60;;
64252;SDS011;50592;52.958;-7.470;2023-11-19T16:08:34;26.17;;;3.13;;
64252;SDS011;50592;52.958;-7.470;2023-11-19T16:11:03;28.75;;;4.60;;
64252;SDS011;50592;52.958;-7.470;2023-11-19T16:13:29;26.45;;;4.03;;
64252;SDS011;50592;52.958;-7.470;2023-11-19T16:27:31;22.48;;;3.42;;
64252;SDS011;50592;52.958;-7.470;2023-11-19T16:29:58;20.38;;;3.58;;
64252;SDS011;50592;52.958;-7.470;2023-11-19T16:32:25;25.25;;;3.83;;
64252;SDS011;50592;52.958;-7.470;2023-11-19T16:34:56;26.80;;;4.28;;
64252;SDS011;50592;52.958;-7.470;2023-11-19T16:37:24;26.73;;;4.50;;
64252;SDS011;50592;52.958;-7.470;2023-11-19T16:39:53;17.77;;;3.63;;
64252;SDS011;50592;52.958;-7.470;2023-11-19T16:42:21;22.15;;;4.13;;
64252;SDS011;50592;52.958;-7.470;2023-11-19T16:44:56;27.92;;;4.13;;
64252;SDS011;50592;52.958;-7.470;2023-11-19T16:47:23;22.48;;;3.63;;
64252;SDS011;50592;52.958;-7.470;2023-11-19T16:49:52;30.35;;;4.57;;
64252;SDS011;50592;52.958;-7.470;2023-11-19T16:52:21;26.83;;;4.43;;
64252;SDS011;50592;52.958;-7.470;2023-11-19T17:07:37;30.98;;;4.80;;
64252;SDS011;50592;52.958;-7.470;2023-11-19T17:10:04;33.00;;;5.50;;
64252;SDS011;50592;52.958;-7.470;2023-11-19T17:12:31;38.10;;;6.95;;
64252;SDS011;50592;52.958;-7.470;2023-11-19T17:14:57;39.30;;;6.28;;
64252;SDS011;50592;52.958;-7.470;2023-11-19T17:17:34;26.33;;;5.15;;
64252;SDS011;50592;52.958;-7.470;2023-11-19T17:20:03;27.58;;;4.55;;
64252;SDS011;50592;52.958;-7.470;2023-11-19T17:22:32;30.70;;;4.20;;
64252;SDS011;50592;52.958;-7.470;2023-11-19T17:25:09;29.48;;;4.75;;
64252;SDS011;50592;52.958;-7.470;2023-11-19T17:27:40;26.70;;;3.88;;
64252;SDS011;50592;52.958;-7.470;2023-11-19T17:30:13;22.58;;;4.40;;
64252;SDS011;50592;52.958;-7.470;2023-11-19T17:43:45;27.67;;;4.20;;
64252;SDS011;50592;52.958;-7.470;2023-11-19T18:07:48;27.08;;;4.35;;
64252;SDS011;50592;52.958;-7.470;2023-11-19T18:10:22;29.75;;;5.40;;
64252;SDS011;50592;52.958;-7.470;2023-11-19T18:13:33;35.92;;;4.82;;
64252;SDS011;50592;52.958;-7.470;2023-11-19T18:16:52;25.23;;;4.45;;
64252;SDS011;50592;52.958;-7.470;2023-11-19T18:39:54;21.90;;;4.90;;
64252;SDS011;50592;52.958;-7.470;2023-11-19T18:42:43;31.38;;;6.28;;
64252;SDS011;50592;52.958;-7.470;2023-11-19T18:45:52;30.33;;;4.63;;
64252;SDS011;50592;52.958;-7.470;2023-11-19T18:53:47;30.15;;;6.00;;
64252;SDS011;50592;52.958;-7.470;2023-11-19T19:03:20;26.55;;;7.00;;
64252;SDS011;50592;52.958;-7.470;2023-11-19T19:05:52;36.45;;;12.95;;
64252;SDS011;50592;52.958;-7.470;2023-11-19T19:08:36;27.17;;;4.80;;
64252;SDS011;50592;52.958;-7.470;2023-11-19T19:11:13;28.15;;;6.38;;
64252;SDS011;50592;52.958;-7.470;2023-11-19T19:14:17;24.02;;;4.28;;
64252;SDS011;50592;52.958;-7.470;2023-11-19T19:17:34;23.38;;;5.22;;
64252;SDS011;50592;52.958;-7.470;2023-11-19T19:20:26;29.52;;;4.45;;
64252;SDS011;50592;52.958;-7.470;2023-11-19T19:23:26;32.75;;;4.65;;
64252;SDS011;50592;52.958;-7.470;2023-11-19T19:29:07;30.80;;;7.78;;
64252;SDS011;50592;52.958;-7.470;2023-11-19T19:31:51;26.85;;;4.45;;
64252;SDS011;50592;52.958;-7.470;2023-11-19T19:34:18;32.72;;;5.47;;
64252;SDS011;50592;52.958;-7.470;2023-11-19T19:36:48;25.70;;;5.05;;
64252;SDS011;50592;52.958;-7.470;2023-11-19T19:39:31;22.55;;;5.35;;
64252;SDS011;50592;52.958;-7.470;2023-11-19T19:42:24;30.90;;;5.30;;
64252;SDS011;50592;52.958;-7.470;2023-11-19T19:45:31;25.00;;;4.90;;
64252;SDS011;50592;52.958;-7.470;2023-11-19T19:48:13;29.52;;;6.00;;
64252;SDS011;50592;52.958;-7.470;2023-11-19T19:50:55;26.13;;;4.95;;
64252;SDS011;50592;52.958;-7.470;2023-11-19T19:57:07;27.15;;;5.15;;
64252;SDS011;50592;52.958;-7.470;2023-11-19T19:59:54;26.83;;;5.28;;
64252;SDS011;50592;52.958;-7.470;2023-11-19T20:06:11;26.98;;;5.45;;
64252;SDS011;50592;52.958;-7.470;2023-11-19T20:08:47;25.92;;;4.35;;
64252;SDS011;50592;52.958;-7.470;2023-11-19T20:11:18;26.20;;;5.43;;
64252;SDS011;50592;52.958;-7.470;2023-11-19T20:14:08;21.08;;;4.00;;
64252;SDS011;50592;52.958;-7.470;2023-11-19T20:16:57;28.27;;;4.65;;
64252;SDS011;50592;52.958;-7.470;2023-11-19T20:19:29;31.20;;;6.38;;
64252;SDS011;50592;52.958;-7.470;2023-11-19T20:21:58;33.88;;;4.85;;
64252;SDS011;50592;52.958;-7.470;2023-11-19T20:24:41;40.28;;;7.07;;
64252;SDS011;50592;52.958;-7.470;2023-11-19T20:30:48;22.33;;;5.32;;
64252;SDS011;50592;52.958;-7.470;2023-11-19T20:33:32;29.98;;;5.63;;
64252;SDS011;50592;52.958;-7.470;2023-11-19T20:36:04;26.50;;;4.13;;
64252;SDS011;50592;52.958;-7.470;2023-11-19T20:39:19;21.92;;;4.15;;
64252;SDS011;50592;52.958;-7.470;2023-11-19T20:42:14;35.97;;;4.80;;
64252;SDS011;50592;52.958;-7.470;2023-11-19T20:48:24;20.92;;;4.22;;
64252;SDS011;50592;52.958;-7.470;2023-11-19T20:51:14;20.92;;;3.67;;
64252;SDS011;50592;52.958;-7.470;2023-11-19T20:57:00;20.88;;;3.38;;
64252;SDS011;50592;52.958;-7.470;2023-11-19T20:59:42;23.40;;;3.33;;
64252;SDS011;50592;52.958;-7.470;2023-11-19T21:02:13;19.45;;;3.28;;
64252;SDS011;50592;52.958;-7.470;2023-11-19T21:04:50;24.75;;;4.68;;
64252;SDS011;50592;52.958;-7.470;2023-11-19T21:07:28;13.75;;;3.33;;
64252;SDS011;50592;52.958;-7.470;2023-11-19T21:09:59;16.02;;;3.05;;
64252;SDS011;50592;52.958;-7.470;2023-11-19T21:12:25;16.38;;;2.83;;
64252;SDS011;50592;52.958;-7.470;2023-11-19T21:14:56;15.57;;;2.50;;
64252;SDS011;50592;52.958;-7.470;2023-11-19T21:17:25;16.50;;;3.13;;
64252;SDS011;50592;52.958;-7.470;2023-11-19T21:19:51;10.52;;;2.42;;
64252;SDS011;50592;52.958;-7.470;2023-11-19T21:22:24;16.73;;;2.70;;
64252;SDS011;50592;52.958;-7.470;2023-11-19T21:24:52;13.55;;;2.42;;
64252;SDS011;50592;52.958;-7.470;2023-11-19T21:27:30;16.35;;;2.58;;
64252;SDS011;50592;52.958;-7.470;2023-11-19T21:29:57;15.45;;;2.67;;
64252;SDS011;50592;52.958;-7.470;2023-11-19T21:35:13;18.20;;;1.92;;
64252;SDS011;50592;52.958;-7.470;2023-11-19T21:37:42;11.82;;;2.40;;
64252;SDS011;50592;52.958;-7.470;2023-11-19T21:40:14;10.98;;;1.95;;
64252;SDS011;50592;52.958;-7.470;2023-11-19T21:42:43;15.48;;;2.70;;
64252;SDS011;50592;52.958;-7.470;2023-11-19T21:45:14;16.77;;;2.30;;
64252;SDS011;50592;52.958;-7.470;2023-11-19T21:47:42;10.27;;;2.05;;
64252;SDS011;50592;52.958;-7.470;2023-11-19T21:50:08;12.38;;;1.77;;
64252;SDS011;50592;52.958;-7.470;2023-11-19T21:52:47;11.85;;;2.95;;
64252;SDS011;50592;52.958;-7.470;2023-11-19T21:55:26;11.23;;;2.30;;
64252;SDS011;50592;52.958;-7.470;2023-11-19T22:10:16;13.00;;;1.95;;
64252;SDS011;50592;52.958;-7.470;2023-11-19T22:12:42;14.25;;;2.65;;
64252;SDS011;50592;52.958;-7.470;2023-11-19T22:15:09;18.50;;;2.47;;
64252;SDS011;50592;52.958;-7.470;2023-11-19T22:17:35;14.18;;;2.70;;
64252;SDS011;50592;52.958;-7.470;2023-11-19T22:49:27;17.70;;;2.60;;
64252;SDS011;50592;52.958;-7.470;2023-11-19T22:51:53;17.13;;;3.35;;
64252;SDS011;50592;52.958;-7.470;2023-11-19T22:57:17;19.40;;;2.85;;
64252;SDS011;50592;52.958;-7.470;2023-11-19T22:59:42;15.70;;;2.80;;
64252;SDS011;50592;52.958;-7.470;2023-11-19T23:05:16;14.10;;;2.35;;
64252;SDS011;50592;52.958;-7.470;2023-11-19T23:11:12;20.45;;;2.92;;
64252;SDS011;50592;52.958;-7.470;2023-11-19T23:14:09;14.38;;;2.15;;
64252;SDS011;50592;52.958;-7.470;2023-11-19T23:16:37;15.20;;;2.15;;